Time;durP1;ratioP1;P1;durP2;ratioP2;P2;SDS_P1;SDS_P2;PMS_P1;PMS_P2;Temp;Humidity;BMP_temperature;BMP_pressure;BME280_temperature;BME280_humidity;BME280_pressure;Samples;Min_cycle;Max_cycle;Signal;HPM_P1;HPM_P2
2020/12/30 00:01:46;;;;;;;16.05;9.18;;;3.50;99.90;;;;;;4151485;28;20156;-70
2020/12/30 00:03:47;;;;;;;15.88;9.20;;;3.50;99.90;;;;;;4153459;28;20026;-70
2020/12/30 00:05:47;;;;;;;16.17;8.93;;;3.50;99.90;;;;;;4152167;28;20046;-70
2020/12/30 00:07:48;;;;;;;16.42;8.93;;;3.50;99.90;;;;;;4152544;28;20056;-70
2020/12/30 00:09:49;;;;;;;14.32;9.27;;;3.50;99.90;;;;;;4153503;28;20041;-70
2020/12/30 00:11:50;;;;;;;13.65;8.70;;;3.50;99.90;;;;;;4148679;28;21338;-70
2020/12/30 00:13:51;;;;;;;15.38;9.10;;;3.50;99.90;;;;;;4152095;28;20030;-70
2020/12/30 00:15:51;;;;;;;13.95;9.10;;;3.50;99.90;;;;;;4149179;28;20191;-70
2020/12/30 00:17:52;;;;;;;15.85;9.13;;;3.50;99.90;;;;;;4153469;28;20041;-70
2020/12/30 00:19:53;;;;;;;14.90;9.20;;;3.50;99.90;;;;;;4154602;28;20057;-70
2020/12/30 00:21:53;;;;;;;15.05;9.63;;;3.50;99.90;;;;;;4151670;28;20109;-70
2020/12/30 00:23:54;;;;;;;14.40;9.18;;;3.50;99.90;;;;;;4155849;28;20566;-70
2020/12/30 00:25:54;;;;;;;15.13;9.15;;;3.50;99.90;;;;;;4153587;28;20045;-70
2020/12/30 00:27:55;;;;;;;16.52;9.45;;;3.50;99.90;;;;;;4149388;28;20029;-70
2020/12/30 00:29:56;;;;;;;16.70;9.45;;;3.50;99.90;;;;;;4150697;28;20061;-70
2020/12/30 00:31:57;;;;;;;16.58;9.57;;;3.50;99.90;;;;;;4151595;28;20496;-70
2020/12/30 00:33:57;;;;;;;17.77;9.63;;;3.50;99.90;;;;;;4153982;28;20064;-70
2020/12/30 00:35:58;;;;;;;13.32;8.27;;;3.50;99.90;;;;;;4152851;28;20045;-70
2020/12/30 00:37:58;;;;;;;15.27;9.85;;;3.50;99.90;;;;;;4152479;28;20619;-70
2020/12/30 00:39:59;;;;;;;15.38;9.38;;;3.50;99.90;;;;;;4145098;28;20026;-70
2020/12/30 00:42:00;;;;;;;16.73;9.25;;;3.50;99.90;;;;;;4151165;28;20064;-70
2020/12/30 00:44:00;;;;;;;15.63;9.23;;;3.50;99.90;;;;;;4152014;28;20103;-70
2020/12/30 00:46:01;;;;;;;17.83;9.13;;;3.50;99.90;;;;;;4151130;28;20037;-70
2020/12/30 00:48:01;;;;;;;15.80;9.18;;;3.50;99.90;;;;;;4152545;28;20030;-70
2020/12/30 00:50:07;;;;;;;15.90;9.55;;;3.50;99.90;;;;;;4155031;28;20112;-70
2020/12/30 00:52:09;;;;;;;14.38;9.13;;;3.50;99.90;;;;;;4152839;28;20049;-70
2020/12/30 00:54:09;;;;;;;19.33;10.93;;;3.50;99.90;;;;;;4150371;28;20034;-70
2020/12/30 00:56:13;;;;;;;16.67;9.52;;;3.50;99.90;;;;;;4152887;28;20091;-70
2020/12/30 00:58:14;;;;;;;16.38;9.88;;;3.50;99.90;;;;;;4150111;28;20128;-70
2020/12/30 01:00:14;;;;;;;17.92;9.77;;;3.50;99.90;;;;;;4153727;28;20045;-70
2020/12/30 01:02:15;;;;;;;15.90;9.40;;;3.50;99.90;;;;;;4149928;28;20034;-70
2020/12/30 01:04:16;;;;;;;16.10;9.48;;;3.50;99.90;;;;;;4142418;28;20049;-70
2020/12/30 01:06:17;;;;;;;14.88;9.20;;;3.50;99.90;;;;;;4153387;28;20199;-70
2020/12/30 01:08:19;;;;;;;16.48;9.45;;;3.50;99.90;;;;;;4151036;28;20041;-70
2020/12/30 01:10:19;;;;;;;15.73;9.23;;;3.50;99.90;;;;;;4151471;28;20049;-70
2020/12/30 01:12:20;;;;;;;16.13;8.70;;;3.50;99.90;;;;;;4148351;28;20033;-70
2020/12/30 01:14:21;;;;;;;16.60;8.75;;;3.50;99.90;;;;;;4151875;28;20033;-70
2020/12/30 01:16:22;;;;;;;17.58;9.43;;;3.50;99.90;;;;;;4153239;28;20049;-70
2020/12/30 01:18:23;;;;;;;15.75;9.07;;;3.50;99.90;;;;;;4153200;28;20034;-70
2020/12/30 01:20:23;;;;;;;14.65;9.05;;;3.50;99.90;;;;;;4153447;28;20053;-70
2020/12/30 01:22:24;;;;;;;13.60;8.55;;;3.50;99.90;;;;;;4153221;28;20030;-70
2020/12/30 01:24:25;;;;;;;14.75;8.88;;;3.50;99.90;;;;;;4155781;28;20029;-70
2020/12/30 01:26:26;;;;;;;17.20;9.75;;;3.50;99.90;;;;;;4149056;28;20025;-70
2020/12/30 01:28:26;;;;;;;14.88;9.40;;;3.50;99.90;;;;;;4153255;28;20493;-70
2020/12/30 01:30:27;;;;;;;14.35;8.57;;;3.50;99.90;;;;;;4151393;28;20045;-70
2020/12/30 01:32:27;;;;;;;15.68;9.70;;;3.50;99.90;;;;;;4152345;28;20500;-70
2020/12/30 01:34:28;;;;;;;15.15;8.95;;;3.50;99.90;;;;;;4155354;28;20641;-70
2020/12/30 01:36:29;;;;;;;13.93;9.02;;;3.50;99.90;;;;;;4154130;28;20034;-70
2020/12/30 01:38:32;;;;;;;14.85;8.93;;;3.50;99.90;;;;;;4154403;28;20038;-70
2020/12/30 01:40:33;;;;;;;14.57;9.05;;;3.50;99.90;;;;;;4151605;28;20026;-70
2020/12/30 01:42:47;;;;;;;16.00;9.45;;;3.50;99.90;;;;;;4156867;28;20151;-70
2020/12/30 01:44:48;;;;;;;14.18;8.48;;;3.50;99.90;;;;;;4153234;28;20030;-70
2020/12/30 01:46:51;;;;;;;15.30;9.68;;;3.50;99.90;;;;;;4154208;28;20399;-70
2020/12/30 01:48:56;;;;;;;15.18;10.13;;;3.50;99.90;;;;;;4152328;28;20093;-70
2020/12/30 01:50:56;;;;;;;16.40;9.70;;;3.50;99.90;;;;;;4156499;28;20029;-70
2020/12/30 01:52:57;;;;;;;14.93;9.85;;;3.60;99.90;;;;;;4155675;28;20033;-70
2020/12/30 01:54:59;;;;;;;16.70;10.02;;;3.60;99.90;;;;;;4148696;28;20347;-70
2020/12/30 01:57:02;;;;;;;17.05;10.02;;;3.60;99.90;;;;;;4155511;28;20405;-70
2020/12/30 01:59:17;;;;;;;16.42;9.57;;;3.60;99.90;;;;;;4154598;28;20079;-70
2020/12/30 02:01:22;;;;;;;15.80;9.65;;;3.60;99.90;;;;;;4141686;28;20044;-70
2020/12/30 02:03:25;;;;;;;14.68;9.40;;;3.60;99.90;;;;;;4155010;28;20397;-70
2020/12/30 02:05:31;;;;;;;16.00;9.65;;;3.60;99.90;;;;;;4141603;28;20053;-70
2020/12/30 02:07:32;;;;;;;15.73;10.13;;;3.60;99.90;;;;;;4154904;28;20026;-70
2020/12/30 02:09:32;;;;;;;15.23;9.68;;;3.50;99.90;;;;;;4154390;28;20068;-70
2020/12/30 02:11:34;;;;;;;17.65;10.02;;;3.60;99.90;;;;;;4152249;28;20037;-70
2020/12/30 02:13:35;;;;;;;16.07;10.20;;;3.60;99.90;;;;;;4156324;28;20034;-70
2020/12/30 02:15:35;;;;;;;14.60;8.80;;;3.50;99.90;;;;;;4151696;28;20648;-70
2020/12/30 02:17:36;;;;;;;16.83;9.43;;;3.60;99.90;;;;;;4154990;28;20056;-70
2020/12/30 02:19:36;;;;;;;17.38;10.00;;;3.60;99.90;;;;;;4151810;28;20468;-70
2020/12/30 02:21:37;;;;;;;17.02;9.38;;;3.60;99.90;;;;;;4157130;28;20032;-70
2020/12/30 02:23:38;;;;;;;14.38;9.68;;;3.60;99.90;;;;;;4157920;28;20037;-70
2020/12/30 02:25:38;;;;;;;15.60;9.20;;;3.60;99.90;;;;;;4155892;28;20057;-70
2020/12/30 02:27:39;;;;;;;16.55;9.98;;;3.60;99.90;;;;;;4157911;28;20041;-70
2020/12/30 02:29:40;;;;;;;13.02;8.63;;;3.60;99.90;;;;;;4156471;28;20036;-70
2020/12/30 02:31:40;;;;;;;14.70;9.68;;;3.60;99.90;;;;;;4153919;28;20033;-70
2020/12/30 02:33:41;;;;;;;16.08;9.15;;;3.60;99.90;;;;;;4155473;28;20037;-70
2020/12/30 02:35:42;;;;;;;13.25;7.90;;;3.60;99.90;;;;;;4155156;28;20066;-69
2020/12/30 02:37:44;;;;;;;15.40;9.75;;;3.50;99.90;;;;;;4154050;28;20057;-70
2020/12/30 02:39:45;;;;;;;18.38;9.48;;;3.60;99.90;;;;;;4152431;28;20537;-70
2020/12/30 02:41:46;;;;;;;12.15;8.40;;;3.60;99.90;;;;;;4155386;28;20030;-70
2020/12/30 02:43:47;;;;;;;12.55;8.45;;;3.60;99.90;;;;;;4152821;28;20068;-70
2020/12/30 02:45:48;;;;;;;13.68;8.88;;;3.50;99.90;;;;;;4150451;28;20749;-70
2020/12/30 02:47:48;;;;;;;14.65;8.77;;;3.50;99.90;;;;;;4151599;28;20026;-70
2020/12/30 02:49:49;;;;;;;14.73;8.93;;;3.50;99.90;;;;;;4157482;28;20425;-70
2020/12/30 02:51:49;;;;;;;14.23;9.27;;;3.50;99.90;;;;;;4152286;28;20022;-70
2020/12/30 02:53:51;;;;;;;13.00;8.15;;;3.50;99.90;;;;;;4152616;28;20033;-70
2020/12/30 02:55:51;;;;;;;13.15;8.43;;;3.50;99.90;;;;;;4151796;28;20465;-70
2020/12/30 02:57:52;;;;;;;14.52;8.43;;;3.50;99.90;;;;;;4152263;28;20030;-70
2020/12/30 02:59:58;;;;;;;16.98;9.40;;;3.50;99.90;;;;;;4151389;28;20435;-70
2020/12/30 03:01:59;;;;;;;13.48;8.50;;;3.50;99.90;;;;;;4151233;28;20053;-70
2020/12/30 03:03:59;;;;;;;15.52;9.32;;;3.50;99.90;;;;;;4154193;28;20038;-70
2020/12/30 03:06:00;;;;;;;15.40;9.25;;;3.50;99.90;;;;;;4151689;28;20088;-70
2020/12/30 03:08:01;;;;;;;15.10;9.20;;;3.50;99.90;;;;;;4153291;28;20030;-70
2020/12/30 03:10:02;;;;;;;16.52;8.90;;;3.50;99.90;;;;;;4154399;28;20053;-70
2020/12/30 03:12:03;;;;;;;17.33;9.77;;;3.50;99.90;;;;;;4152789;28;20108;-70
2020/12/30 03:14:03;;;;;;;11.77;8.02;;;3.50;99.90;;;;;;4136396;28;20030;-70
2020/12/30 03:16:04;;;;;;;13.02;8.65;;;3.50;99.90;;;;;;4154685;28;20469;-70
2020/12/30 03:18:05;;;;;;;17.17;10.18;;;3.50;99.90;;;;;;4152791;28;20026;-70
2020/12/30 03:20:05;;;;;;;14.35;9.15;;;3.50;99.90;;;;;;4158972;28;20524;-70
2020/12/30 03:22:06;;;;;;;19.00;9.70;;;3.40;99.90;;;;;;4152527;28;20037;-70
2020/12/30 03:24:07;;;;;;;15.77;9.43;;;3.40;99.90;;;;;;4150314;28;20096;-70
2020/12/30 03:26:07;;;;;;;16.67;9.18;;;3.40;99.90;;;;;;4154272;28;20065;-70
2020/12/30 03:28:09;;;;;;;13.73;8.70;;;3.40;99.90;;;;;;4152600;28;20044;-70
2020/12/30 03:30:10;;;;;;;16.33;9.07;;;3.50;99.90;;;;;;4153730;28;20033;-70
2020/12/30 03:32:11;;;;;;;14.18;8.90;;;3.50;99.90;;;;;;4159037;28;20037;-70
2020/12/30 03:34:11;;;;;;;16.63;9.15;;;3.50;99.90;;;;;;4159086;28;20037;-70
2020/12/30 03:36:12;;;;;;;17.70;9.38;;;3.50;99.90;;;;;;4158715;28;20041;-70
2020/12/30 03:38:12;;;;;;;14.00;9.57;;;3.50;99.90;;;;;;4158427;28;20120;-70
2020/12/30 03:40:13;;;;;;;12.68;8.40;;;3.50;99.90;;;;;;4160329;28;20563;-70
2020/12/30 03:42:14;;;;;;;16.58;9.52;;;3.50;99.90;;;;;;4158486;28;20503;-70
2020/12/30 03:44:14;;;;;;;16.10;9.93;;;3.50;99.90;;;;;;4158895;28;20033;-70
2020/12/30 03:46:15;;;;;;;15.30;8.82;;;3.50;99.90;;;;;;4144449;28;20038;-70
2020/12/30 03:48:16;;;;;;;15.45;9.25;;;3.50;99.90;;;;;;4154202;28;20033;-70
2020/12/30 03:50:16;;;;;;;19.08;11.20;;;3.50;99.90;;;;;;4158984;28;20121;-70
2020/12/30 03:52:17;;;;;;;18.17;9.65;;;3.50;99.90;;;;;;4152112;28;20418;-70
2020/12/30 03:54:18;;;;;;;15.50;9.80;;;3.50;99.90;;;;;;4143973;28;20034;-70
2020/12/30 03:56:18;;;;;;;17.50;10.40;;;3.50;99.90;;;;;;4157473;28;20037;-70
2020/12/30 03:58:20;;;;;;;16.67;10.27;;;3.50;99.90;;;;;;4158981;28;20037;-70
2020/12/30 04:00:20;;;;;;;17.35;11.07;;;3.50;99.90;;;;;;4139437;28;20599;-70
2020/12/30 04:02:21;;;;;;;14.85;10.30;;;3.50;99.90;;;;;;4159831;28;20045;-70
2020/12/30 04:04:21;;;;;;;18.88;10.23;;;3.50;99.90;;;;;;4160305;28;20394;-70
2020/12/30 04:06:22;;;;;;;13.82;9.25;;;3.50;99.90;;;;;;4159597;28;20501;-70
2020/12/30 04:08:22;;;;;;;14.70;9.25;;;3.50;99.90;;;;;;4157544;28;20041;-70
2020/12/30 04:10:23;;;;;;;15.50;10.02;;;3.50;99.90;;;;;;4158398;28;20084;-70
2020/12/30 04:12:23;;;;;;;17.83;10.38;;;3.50;99.90;;;;;;4159546;28;20029;-70
2020/12/30 04:14:24;;;;;;;16.75;10.32;;;3.60;99.90;;;;;;4151982;28;20057;-70
2020/12/30 04:16:25;;;;;;;16.67;10.38;;;3.60;99.90;;;;;;4149896;28;20433;-70
2020/12/30 04:18:26;;;;;;;16.98;9.75;;;3.60;99.90;;;;;;4148819;28;20034;-70
2020/12/30 04:20:26;;;;;;;18.33;10.32;;;3.60;99.90;;;;;;4159551;28;20054;-70
2020/12/30 04:22:27;;;;;;;16.63;9.75;;;3.60;99.90;;;;;;4159759;28;20068;-70
2020/12/30 04:24:28;;;;;;;16.35;10.80;;;3.60;99.90;;;;;;4158789;28;20528;-70
2020/12/30 04:26:29;;;;;;;15.90;9.80;;;3.60;99.90;;;;;;4158784;28;20037;-70
2020/12/30 04:28:29;;;;;;;16.67;10.70;;;3.70;99.90;;;;;;4159521;28;20029;-70
2020/12/30 04:30:31;;;;;;;16.38;10.02;;;3.60;99.90;;;;;;4137750;28;20057;-70
2020/12/30 04:32:31;;;;;;;18.00;10.30;;;3.60;99.90;;;;;;4156326;28;20030;-70
2020/12/30 04:34:32;;;;;;;16.27;9.32;;;3.70;99.90;;;;;;4158439;28;20025;-70
2020/12/30 04:36:33;;;;;;;15.07;10.02;;;3.70;99.90;;;;;;4154980;28;20032;-70
2020/12/30 04:38:35;;;;;;;20.70;11.20;;;3.70;99.90;;;;;;4158296;28;20480;-70
2020/12/30 04:40:36;;;;;;;15.77;10.07;;;3.80;99.90;;;;;;4157321;28;20033;-70
2020/12/30 04:42:38;;;;;;;19.52;10.88;;;3.70;99.90;;;;;;4157022;28;20507;-70
2020/12/30 04:44:48;;;;;;;20.07;11.63;;;3.80;99.90;;;;;;4157901;28;20053;-70
2020/12/30 04:46:49;;;;;;;17.92;10.23;;;3.80;99.90;;;;;;4159306;28;20268;-70
2020/12/30 04:48:50;;;;;;;18.63;11.23;;;3.80;99.90;;;;;;4157991;28;20033;-70
2020/12/30 04:50:52;;;;;;;19.15;11.35;;;3.80;99.90;;;;;;4156533;28;20119;-70
2020/12/30 04:52:53;;;;;;;17.13;10.77;;;3.80;99.90;;;;;;4157847;28;20053;-70
2020/12/30 04:54:54;;;;;;;17.63;11.38;;;3.80;99.90;;;;;;4157293;28;20091;-70
2020/12/30 04:56:56;;;;;;;21.00;12.07;;;3.80;99.90;;;;;;4157422;28;20577;-70
2020/12/30 04:58:58;;;;;;;17.92;11.25;;;3.90;99.90;;;;;;4159420;28;20590;-70
2020/12/30 05:00:59;;;;;;;17.58;11.35;;;3.90;99.90;;;;;;4158065;28;20030;-70
2020/12/30 05:03:06;;;;;;;18.83;11.15;;;3.90;99.90;;;;;;4157554;28;20052;-70
2020/12/30 05:05:07;;;;;;;17.85;11.80;;;3.90;99.90;;;;;;4146263;28;20034;-70
2020/12/30 05:07:14;;;;;;;19.33;11.15;;;3.90;99.90;;;;;;4155563;28;20582;-70
2020/12/30 05:09:19;;;;;;;16.40;11.38;;;3.80;99.90;;;;;;4153424;28;20048;-70
2020/12/30 05:11:21;;;;;;;15.05;10.52;;;3.90;99.90;;;;;;4156013;28;20228;-70
2020/12/30 05:13:22;;;;;;;19.25;12.05;;;3.80;99.90;;;;;;4158905;28;20030;-70
2020/12/30 05:15:22;;;;;;;21.33;12.68;;;3.90;99.90;;;;;;4159202;28;20084;-70
2020/12/30 05:17:23;;;;;;;20.38;11.60;;;3.80;99.90;;;;;;4144273;28;20038;-70
2020/12/30 05:19:25;;;;;;;20.05;12.55;;;3.90;99.90;;;;;;4154053;28;20059;-70
2020/12/30 05:21:26;;;;;;;21.88;12.75;;;3.90;99.90;;;;;;4157349;28;20041;-70
2020/12/30 05:23:30;;;;;;;19.63;12.02;;;3.80;99.90;;;;;;4150171;28;20033;-70
2020/12/30 05:25:37;;;;;;;18.77;12.15;;;3.80;99.90;;;;;;4155076;28;20111;-70
2020/12/30 05:27:38;;;;;;;22.30;13.95;;;3.80;99.90;;;;;;4158802;28;20114;-69
2020/12/30 05:29:49;;;;;;;19.95;12.27;;;3.90;99.90;;;;;;4159007;28;20415;-70
2020/12/30 05:31:53;;;;;;;18.85;12.02;;;3.90;99.90;;;;;;4158861;28;20083;-70
2020/12/30 05:33:54;;;;;;;18.63;12.27;;;3.90;99.90;;;;;;4158328;28;20059;-70
2020/12/30 05:35:59;;;;;;;19.48;12.23;;;3.90;99.90;;;;;;4153862;28;20073;-70
2020/12/30 05:38:01;;;;;;;21.48;12.93;;;3.90;99.90;;;;;;4156128;28;20041;-70
2020/12/30 05:40:17;;;;;;;19.67;12.40;;;3.90;99.90;;;;;;4149330;28;20060;-69
2020/12/30 05:42:19;;;;;;;21.42;13.30;;;3.90;99.90;;;;;;4158766;28;20061;-70
2020/12/30 05:44:20;;;;;;;20.02;12.20;;;3.90;99.90;;;;;;4157806;28;20061;-70
2020/12/30 05:46:26;;;;;;;19.30;12.50;;;3.90;99.90;;;;;;4158994;28;20041;-70
2020/12/30 05:48:26;;;;;;;20.10;12.27;;;3.90;99.90;;;;;;4152466;28;20037;-70
2020/12/30 05:50:27;;;;;;;19.42;12.23;;;3.90;99.90;;;;;;4157810;28;20639;-69
2020/12/30 05:52:28;;;;;;;20.63;12.65;;;3.90;99.90;;;;;;4149319;28;20060;-69
2020/12/30 05:54:29;;;;;;;21.42;12.75;;;3.90;99.90;;;;;;4140784;28;20121;-69
2020/12/30 05:56:30;;;;;;;22.98;13.38;;;3.90;99.90;;;;;;4146699;28;20041;-69
2020/12/30 05:58:36;;;;;;;19.38;11.93;;;3.90;99.90;;;;;;4159044;28;20033;-69
2020/12/30 06:00:37;;;;;;;19.45;12.27;;;3.90;99.90;;;;;;4156735;28;20040;-70
2020/12/30 06:02:42;;;;;;;18.80;11.98;;;3.90;99.90;;;;;;4154934;28;20034;-69
2020/12/30 06:04:42;;;;;;;20.92;12.25;;;4.00;99.90;;;;;;4158808;28;20369;-69
2020/12/30 06:06:47;;;;;;;19.50;12.57;;;4.00;99.90;;;;;;4158856;28;20049;-70
2020/12/30 06:08:49;;;;;;;20.35;12.40;;;4.00;99.90;;;;;;4147265;28;20030;-70
2020/12/30 06:10:52;;;;;;;22.30;13.90;;;3.90;99.90;;;;;;4158294;28;20038;-69
2020/12/30 06:12:55;;;;;;;20.90;12.70;;;4.00;99.90;;;;;;4152802;28;20037;-69
2020/12/30 06:14:56;;;;;;;21.23;12.50;;;4.00;99.90;;;;;;4154102;28;20076;-69
2020/12/30 06:17:01;;;;;;;20.27;12.65;;;4.00;99.90;;;;;;4157038;28;20021;-69
2020/12/30 06:19:01;;;;;;;22.25;13.13;;;4.00;99.90;;;;;;4145387;28;20038;-69
2020/12/30 06:21:06;;;;;;;20.63;13.20;;;4.00;99.90;;;;;;4156263;28;20564;-69
2020/12/30 06:23:09;;;;;;;23.35;13.40;;;4.00;99.90;;;;;;4145601;28;20033;-69
2020/12/30 06:25:10;;;;;;;20.27;12.88;;;3.90;99.90;;;;;;4154808;28;20034;-69
2020/12/30 06:27:18;;;;;;;20.40;12.83;;;4.00;99.90;;;;;;4147965;28;20577;-69
2020/12/30 06:29:19;;;;;;;22.02;13.43;;;3.90;99.90;;;;;;4154087;28;20048;-70
2020/12/30 06:31:20;;;;;;;19.80;12.27;;;3.90;99.90;;;;;;4155928;28;20041;-69
2020/12/30 06:33:22;;;;;;;21.23;13.00;;;3.90;99.90;;;;;;4154170;28;20041;-69
2020/12/30 06:35:24;;;;;;;;;;;3.90;99.90;;;;;;4155182;28;20122;-69
2020/12/30 06:37:29;;;;;;;20.08;12.15;;;3.90;99.90;;;;;;4154723;28;19913;-70
2020/12/30 06:39:30;;;;;;;22.38;13.63;;;3.90;99.90;;;;;;4155930;28;20044;-70
2020/12/30 06:42:02;;;;;;;21.55;12.50;;;3.90;99.90;;;;;;4123173;28;20572;-70
2020/12/30 06:44:03;;;;;;;22.13;13.18;;;3.90;99.90;;;;;;4151597;28;20041;-70
2020/12/30 06:46:04;;;;;;;19.20;12.60;;;3.90;99.90;;;;;;4153161;28;20113;-70
2020/12/30 06:48:04;;;;;;;20.58;12.20;;;3.90;99.90;;;;;;4153137;28;20026;-70
2020/12/30 06:50:14;;;;;;;20.73;12.15;;;3.90;99.90;;;;;;4152728;28;20042;-70
2020/12/30 06:52:28;;;;;;;20.35;12.43;;;3.90;99.90;;;;;;4155496;28;20042;-70
2020/12/30 06:54:45;;;;;;;18.77;11.40;;;3.90;99.90;;;;;;4152950;28;20737;-70
2020/12/30 06:56:47;;;;;;;18.35;12.55;;;3.90;99.90;;;;;;4153125;28;20167;-70
2020/12/30 06:58:50;;;;;;;20.58;12.68;;;4.00;99.90;;;;;;4153868;28;20638;-70
2020/12/30 07:01:00;;;;;;;;;;;3.90;99.90;;;;;;4152047;28;20029;-70
2020/12/30 07:03:21;;;;;;;17.75;11.73;;;4.00;99.90;;;;;;4166582;28;19988;-70
2020/12/30 07:05:22;;;;;;;17.55;11.63;;;4.00;99.90;;;;;;4155209;28;20038;-70
2020/12/30 07:07:22;;;;;;;19.45;12.18;;;4.00;99.90;;;;;;4157177;28;20091;-70
2020/12/30 07:09:30;;;;;;;21.50;13.23;;;4.00;99.90;;;;;;4152560;28;20045;-70
2020/12/30 07:11:50;;;;;;;21.42;12.30;;;4.00;99.90;;;;;;4153520;28;20054;-70
2020/12/30 07:13:53;;;;;;;24.23;13.43;;;4.00;99.90;;;;;;4154225;28;20103;-70
2020/12/30 07:16:19;;;;;;;24.00;12.68;;;3.90;99.90;;;;;;4152827;28;20037;-70
2020/12/30 07:18:30;;;;;;;19.60;13.07;;;3.90;99.90;;;;;;4155956;28;20084;-70
2020/12/30 07:20:39;;;;;;;25.15;14.43;;;3.90;99.90;;;;;;4153113;28;20037;-70
2020/12/30 07:22:40;;;;;;;24.33;14.07;;;3.90;99.90;;;;;;4152226;28;20560;-70
2020/12/30 07:24:45;;;;;;;26.17;14.50;;;3.90;99.90;;;;;;4133617;28;20052;-70
2020/12/30 07:26:47;;;;;;;21.42;13.80;;;3.90;99.90;;;;;;4152831;28;20037;-70
2020/12/30 07:28:48;;;;;;;;;;;3.90;99.90;;;;;;4155775;28;20053;-71
2020/12/30 07:30:49;;;;;;;23.95;13.05;;;3.90;99.90;;;;;;4149679;28;19914;-70
2020/12/30 07:32:52;;;;;;;23.25;13.90;;;3.90;99.90;;;;;;4153591;28;20492;-70
2020/12/30 07:34:53;;;;;;;25.35;14.07;;;3.90;99.90;;;;;;4154090;28;20044;-70
2020/12/30 07:36:54;;;;;;;21.08;12.70;;;3.90;99.90;;;;;;4154476;28;20053;-70
2020/12/30 07:38:54;;;;;;;20.42;12.77;;;3.90;99.90;;;;;;4152639;28;20450;-70
2020/12/30 07:41:09;;;;;;;21.88;13.75;;;3.90;99.90;;;;;;4149013;28;20033;-70
2020/12/30 07:43:10;;;;;;;21.52;13.50;;;4.00;99.90;;;;;;4152318;28;20029;-71
2020/12/30 07:45:10;;;;;;;21.85;13.45;;;4.00;99.90;;;;;;4151072;28;20095;-70
2020/12/30 07:47:12;;;;;;;22.33;13.07;;;4.00;99.90;;;;;;4155870;28;20066;-70
2020/12/30 07:49:15;;;;;;;21.40;13.23;;;4.10;99.90;;;;;;4152413;28;20038;-70
2020/12/30 07:51:16;;;;;;;21.55;13.25;;;4.00;99.90;;;;;;4152268;28;20080;-70
2020/12/30 07:53:17;;;;;;;22.95;13.52;;;4.00;99.90;;;;;;4148336;28;20041;-70
2020/12/30 07:55:27;;;;;;;22.80;13.98;;;4.00;99.90;;;;;;4151307;28;20092;-70
2020/12/30 07:57:28;;;;;;;24.02;12.43;;;4.00;99.90;;;;;;4153631;28;20029;-70
2020/12/30 07:59:29;;;;;;;21.25;13.38;;;4.00;99.90;;;;;;4152021;28;20037;-70
2020/12/30 08:01:30;;;;;;;22.50;13.68;;;4.00;99.90;;;;;;4153843;28;20041;-70
2020/12/30 08:03:31;;;;;;;27.08;14.25;;;4.10;99.90;;;;;;4158076;28;20052;-70
2020/12/30 08:05:34;;;;;;;22.33;13.73;;;4.10;99.90;;;;;;4155782;28;20056;-71
2020/12/30 08:07:34;;;;;;;24.13;14.00;;;4.00;99.90;;;;;;4152633;28;20344;-70
2020/12/30 08:09:45;;;;;;;23.33;12.90;;;4.00;99.90;;;;;;4153459;28;20044;-70
2020/12/30 08:11:48;;;;;;;24.45;14.20;;;4.10;99.90;;;;;;4152879;28;20092;-71
2020/12/30 08:13:48;;;;;;;24.02;13.85;;;4.10;99.90;;;;;;4152364;28;20034;-70
2020/12/30 08:15:52;;;;;;;22.80;13.95;;;4.10;99.90;;;;;;4153052;28;20034;-70
2020/12/30 08:17:53;;;;;;;26.60;14.77;;;4.10;99.90;;;;;;4153883;28;20038;-70
2020/12/30 08:19:53;;;;;;;22.98;13.70;;;4.10;99.90;;;;;;4155529;28;20036;-70
2020/12/30 08:22:02;;;;;;;26.92;14.05;;;4.10;99.90;;;;;;4150380;28;20033;-72
2020/12/30 08:24:09;;;;;;;25.67;14.50;;;4.00;99.90;;;;;;4153560;28;20549;-72
2020/12/30 08:26:10;;;;;;;21.52;13.23;;;4.10;99.90;;;;;;4151859;28;20041;-72
2020/12/30 08:28:11;;;;;;;24.63;15.30;;;4.10;99.90;;;;;;4152161;28;20025;-71
2020/12/30 08:30:11;;;;;;;24.52;14.13;;;4.10;99.90;;;;;;4152299;28;20065;-71
2020/12/30 08:32:17;;;;;;;26.20;15.43;;;4.10;99.90;;;;;;4150600;28;20122;-72
2020/12/30 08:34:23;;;;;;;22.13;13.80;;;4.10;99.90;;;;;;4158914;28;20041;-72
2020/12/30 08:36:31;;;;;;;23.80;14.68;;;4.10;99.90;;;;;;4144082;28;20583;-72
2020/12/30 08:38:32;;;;;;;22.13;13.90;;;4.10;99.90;;;;;;4159183;28;20029;-72
2020/12/30 08:40:35;;;;;;;21.40;13.75;;;4.10;99.90;;;;;;4149105;28;20041;-72
2020/12/30 08:42:35;;;;;;;;;;;4.10;99.90;;;;;;4145260;28;20073;-72
2020/12/30 08:44:48;;;;;;;23.92;14.35;;;4.20;99.90;;;;;;4151933;28;19928;-72
2020/12/30 08:46:55;;;;;;;20.52;13.43;;;4.20;99.90;;;;;;4147664;28;20053;-72
2020/12/30 08:48:58;;;;;;;20.85;12.95;;;4.20;99.90;;;;;;4158117;28;20034;-72
2020/12/30 08:50:59;;;;;;;24.80;14.00;;;4.20;99.90;;;;;;4143858;28;20030;-72
2020/12/30 08:53:01;;;;;;;26.00;15.23;;;4.30;99.90;;;;;;4155410;28;20044;-72
2020/12/30 08:55:03;;;;;;;23.90;14.80;;;4.30;99.90;;;;;;4154262;28;20041;-72
2020/12/30 08:57:03;;;;;;;23.40;14.77;;;4.40;99.90;;;;;;4159165;28;20022;-72
2020/12/30 08:59:04;;;;;;;25.23;14.23;;;4.30;99.90;;;;;;4157443;28;20041;-72
2020/12/30 09:01:20;;;;;;;24.55;15.00;;;4.30;99.90;;;;;;4155927;28;20028;-72
2020/12/30 09:03:27;;;;;;;22.95;13.85;;;4.30;99.90;;;;;;4157719;28;20030;-72
2020/12/30 09:05:30;;;;;;;28.83;14.30;;;4.40;99.90;;;;;;4150225;28;20715;-72
2020/12/30 09:07:30;;;;;;;24.05;14.43;;;4.40;99.90;;;;;;4148821;28;20461;-72
2020/12/30 09:09:31;;;;;;;22.45;14.38;;;4.40;99.90;;;;;;4159651;28;20033;-72
2020/12/30 09:11:32;;;;;;;24.90;15.02;;;4.40;99.90;;;;;;4154812;28;20088;-72
2020/12/30 09:13:33;;;;;;;29.08;15.70;;;4.50;99.90;;;;;;4157725;28;20079;-72
2020/12/30 09:15:33;;;;;;;24.25;15.27;;;4.40;99.90;;;;;;4149696;28;20041;-72
2020/12/30 09:17:36;;;;;;;29.08;16.00;;;4.50;99.90;;;;;;4142494;28;20033;-72
2020/12/30 09:19:37;;;;;;;26.35;15.20;;;4.50;99.90;;;;;;4135499;28;20528;-73
2020/12/30 09:21:37;;;;;;;25.40;14.90;;;4.50;99.90;;;;;;4158700;28;20037;-72
2020/12/30 09:23:38;;;;;;;24.98;14.25;;;4.50;99.90;;;;;;4157737;28;20037;-72
2020/12/30 09:25:40;;;;;;;26.00;16.05;;;4.50;99.90;;;;;;4154683;28;20026;-72
2020/12/30 09:27:41;;;;;;;26.35;15.85;;;4.60;99.90;;;;;;4154227;28;20490;-71
2020/12/30 09:29:41;;;;;;;26.27;15.98;;;4.60;99.90;;;;;;4148592;28;20038;-71
2020/12/30 09:31:55;;;;;;;27.38;15.02;;;4.60;99.90;;;;;;4150828;28;20030;-71
2020/12/30 09:33:57;;;;;;;22.10;14.32;;;4.60;99.90;;;;;;4157169;28;20033;-72
2020/12/30 09:36:05;;;;;;;28.85;16.02;;;4.60;99.90;;;;;;4150381;28;20044;-72
2020/12/30 09:38:06;;;;;;;29.20;16.13;;;4.70;99.90;;;;;;4158495;28;20493;-72
2020/12/30 09:40:12;;;;;;;25.30;15.35;;;4.70;99.90;;;;;;4156494;28;20052;-71
2020/12/30 09:42:20;;;;;;;23.77;15.13;;;4.70;99.90;;;;;;4158301;28;20173;-72
2020/12/30 09:44:22;;;;;;;28.75;15.88;;;4.70;99.90;;;;;;4150479;28;20042;-71
2020/12/30 09:46:23;;;;;;;27.77;16.05;;;4.80;99.90;;;;;;4133246;28;20058;-71
2020/12/30 09:48:24;;;;;;;27.08;16.05;;;4.80;99.90;;;;;;4149729;28;20612;-71
2020/12/30 09:50:24;;;;;;;25.85;14.82;;;4.80;99.90;;;;;;4152300;28;20485;-72
2020/12/30 09:52:25;;;;;;;27.55;15.30;;;4.80;99.90;;;;;;4151505;28;20090;-71
2020/12/30 09:54:26;;;;;;;26.95;16.00;;;4.90;99.90;;;;;;4156343;28;20409;-71
2020/12/30 09:56:27;;;;;;;25.67;16.67;;;4.90;99.90;;;;;;4152574;28;20136;-73
2020/12/30 09:58:29;;;;;;;32.20;18.02;;;4.90;99.90;;;;;;4146699;28;20033;-72
2020/12/30 10:00:30;;;;;;;26.33;16.50;;;4.90;99.90;;;;;;4145832;28;20705;-71
2020/12/30 10:02:31;;;;;;;27.55;16.27;;;4.90;99.90;;;;;;4155108;28;20465;-72
2020/12/30 10:04:32;;;;;;;26.33;16.58;;;4.90;99.90;;;;;;4160961;28;20029;-72
2020/12/30 10:06:32;;;;;;;28.02;16.00;;;4.90;99.90;;;;;;4158586;28;20053;-72
2020/12/30 10:08:33;;;;;;;33.10;17.38;;;4.90;99.90;;;;;;4157760;28;20034;-72
2020/12/30 10:10:34;;;;;;;26.42;16.02;;;4.90;99.90;;;;;;4158917;28;20033;-72
2020/12/30 10:12:39;;;;;;;27.97;16.57;;;4.90;99.90;;;;;;4157528;28;20117;-71
2020/12/30 10:14:40;;;;;;;24.33;15.65;;;4.90;99.90;;;;;;4161035;28;20033;-71
2020/12/30 10:16:41;;;;;;;24.63;14.88;;;5.00;99.90;;;;;;4161340;28;20072;-71
2020/12/30 10:18:42;;;;;;;23.80;14.57;;;5.00;99.90;;;;;;4144348;28;20029;-72
2020/12/30 10:20:42;;;;;;;26.42;15.43;;;5.00;99.90;;;;;;4149615;28;20064;-72
2020/12/30 10:22:45;;;;;;;27.10;14.88;;;5.00;99.90;;;;;;4161900;28;20071;-71
2020/12/30 10:24:48;;;;;;;24.55;14.70;;;5.00;99.90;;;;;;4156838;28;20033;-72
2020/12/30 10:26:48;;;;;;;26.38;15.95;;;5.00;99.90;;;;;;4151742;28;20482;-72
2020/12/30 10:28:50;;;;;;;25.60;14.30;;;5.00;99.90;;;;;;4153514;28;20092;-71
2020/12/30 10:30:51;;;;;;;27.10;14.38;;;5.10;99.90;;;;;;4158970;28;20025;-72
2020/12/30 10:32:51;;;;;;;23.48;14.15;;;5.10;99.90;;;;;;4158643;28;20029;-72